Time;durP1;ratioP1;P1;durP2;ratioP2;P2;SDS_P1;SDS_P2;PMS_P1;PMS_P2;Temp;Humidity;BMP_temperature;BMP_pressure;BME280_temperature;BME280_humidity;BME280_pressure;Samples;Min_cycle;Max_cycle;Signal;HPM_P1;HPM_P2
2022/01/04 00:00:17;;;;;;;2.28;1.00;;;;;;;6.90;100.00;95022.09;1017777;29;20395;-69
2022/01/04 00:00:47;;;;;;;3.60;1.02;;;;;;;6.85;100.00;95015.84;1022607;28;20536;-68
2022/01/04 00:01:18;;;;;;;3.85;0.90;;;;;;;6.88;100.00;95017.16;1018260;29;20103;-71
2022/01/04 00:01:48;;;;;;;5.75;1.27;;;;;;;6.94;100.00;95023.16;1015759;29;20591;-68
2022/01/04 00:02:18;;;;;;;3.85;1.17;;;;;;;6.89;100.00;95015.31;1018101;29;20080;-68
2022/01/04 00:02:49;;;;;;;2.95;1.30;;;;;;;6.87;100.00;95017.41;1018312;29;20023;-65
2022/01/04 00:03:20;;;;;;;4.97;1.30;;;;;;;6.86;100.00;95014.00;1018417;29;20015;-68
2022/01/04 00:03:50;;;;;;;3.70;1.10;;;;;;;6.87;100.00;95017.41;1022068;28;20038;-66
2022/01/04 00:04:21;;;;;;;1.73;0.98;;;;;;;6.85;100.00;95009.84;1019004;29;21025;-68
2022/01/04 00:04:51;;;;;;;2.10;0.90;;;;;;;6.85;100.00;95009.84;1018226;29;20024;-64
2022/01/04 00:05:22;;;;;;;2.03;1.08;;;;;;;6.87;100.00;95012.97;1010630;29;20632;-68
2022/01/04 00:05:52;;;;;;;1.65;0.80;;;;;;;6.85;100.00;95009.84;1012157;29;20054;-67
2022/01/04 00:06:23;;;;;;;2.22;0.98;;;;;;;6.89;100.00;95010.88;1014526;29;20024;-68
2022/01/04 00:06:55;;;;;;;2.90;1.13;;;;;;;6.92;100.00;95010.38;1014441;29;20020;-67
2022/01/04 00:07:25;;;;;;;0.65;0.63;;;;;;;6.83;100.00;95001.47;1008275;29;20035;-65
2022/01/04 00:07:56;;;;;;;4.10;1.67;;;;;;;6.95;100.00;95009.88;1010344;29;20332;-67
2022/01/04 00:08:27;;;;;;;3.70;1.08;;;;;;;6.95;100.00;95014.31;1006802;29;20029;-67
2022/01/04 00:09:01;;;;;;;1.42;0.85;;;;;;;7.03;100.00;95003.34;1009119;29;20036;-68
2022/01/04 00:09:34;;;;;;;1.35;0.75;;;;;;;7.02;100.00;95004.41;1013516;29;20755;-67
2022/01/04 00:10:07;;;;;;;2.47;1.30;;;;;;;6.98;100.00;95004.13;1010745;29;20782;-64
2022/01/04 00:10:38;;;;;;;2.88;1.08;;;;;;;6.94;100.00;95003.09;1014159;29;20264;-68
2022/01/04 00:11:15;;;;;;;1.63;0.88;;;;;;;6.92;100.00;95001.78;1017996;29;20266;-67
2022/01/04 00:13:24;;;;;;;2.03;1.10;;;;;;;6.90;100.00;94996.03;1003015;29;20795;-68
2022/01/04 00:13:54;;;;;;;1.85;0.82;;;;;;;6.93;100.00;95003.34;1007288;29;20309;-67
2022/01/04 00:14:24;;;;;;;3.10;1.27;;;;;;;6.91;100.00;94997.59;1010373;29;20569;-65
2022/01/04 00:14:56;;;;;;;4.43;1.42;;;;;;;6.98;100.00;94998.94;1006693;29;20104;-68
2022/01/04 00:15:26;;;;;;;2.78;0.95;;;;;;;6.96;100.00;95000.22;1014447;29;20028;-67
2022/01/04 00:15:57;;;;;;;4.50;1.13;;;;;;;6.93;100.00;94992.91;1013633;29;20659;-67
2022/01/04 00:16:27;;;;;;;2.40;1.02;;;;;;;6.92;100.00;94988.75;1014748;29;20028;-67
2022/01/04 00:16:58;;;;;;;4.60;1.15;;;;;;;6.84;100.00;94983.00;1003794;29;20021;-67
2022/01/04 00:17:28;;;;;;;3.58;1.05;;;;;;;6.96;100.00;94987.97;1012495;29;20033;-67
2022/01/04 00:17:59;;;;;;;2.53;1.10;;;;;;;7.00;100.00;94986.41;1014288;29;20024;-66
2022/01/04 00:18:29;;;;;;;2.85;1.20;;;;;;;6.91;100.00;94976.72;1010476;29;20028;-68
2022/01/04 00:19:00;;;;;;;2.42;0.90;;;;;;;6.96;100.00;94979.34;1014160;29;20545;-67
2022/01/04 00:19:30;;;;;;;2.95;0.80;;;;;;;6.97;100.00;94981.69;1008565;29;20028;-67
2022/01/04 00:20:01;;;;;;;2.13;1.20;;;;;;;6.98;100.00;94979.88;1010015;29;20096;-66
2022/01/04 00:20:32;;;;;;;2.33;1.00;;;;;;;7.00;100.00;94978.56;1013999;29;20028;-69
2022/01/04 00:21:02;;;;;;;2.38;0.98;;;;;;;6.95;100.00;94968.13;1012015;29;20269;-65
2022/01/04 00:21:32;;;;;;;3.38;1.00;;;;;;;7.13;100.00;94979.13;1018200;29;20108;-67
2022/01/04 00:22:04;;;;;;;3.08;1.02;;;;;;;7.10;100.00;94983.03;1018138;29;20036;-68
2022/01/04 00:22:34;;;;;;;4.20;1.10;;;;;;;7.04;100.00;94973.63;1010094;29;20135;-67
2022/01/04 00:23:05;;;;;;;2.17;1.20;;;;;;;7.07;100.00;94975.72;1010533;29;20536;-64
2022/01/04 00:23:35;;;;;;;2.00;1.17;;;;;;;7.12;100.00;94978.34;1010292;29;20025;-68
2022/01/04 00:24:06;;;;;;;3.67;1.00;;;;;;;7.09;100.00;94984.06;1014573;29;20024;-68
2022/01/04 00:24:36;;;;;;;2.67;1.02;;;;;;;7.09;100.00;94974.41;1021902;29;20059;-68
2022/01/04 00:25:07;;;;;;;3.33;1.10;;;;;;;7.18;100.00;94972.09;1022094;29;20031;-68
2022/01/04 00:25:38;;;;;;;4.25;1.10;;;;;;;7.19;100.00;94972.88;1022113;29;20413;-67
2022/01/04 00:26:08;;;;;;;2.45;1.00;;;;;;;7.16;100.00;94968.94;1018139;29;20266;-67
2022/01/04 00:26:39;;;;;;;2.90;1.05;;;;;;;7.09;100.00;94963.19;1022179;29;20171;-67
2022/01/04 00:27:09;;;;;;;1.80;0.88;;;;;;;7.09;100.00;94963.19;1018318;29;20035;-68
2022/01/04 00:27:40;;;;;;;2.72;0.80;;;;;;;7.17;100.00;94962.69;1018144;29;20055;-68
2022/01/04 00:28:10;;;;;;;2.63;0.98;;;;;;;7.12;100.00;94949.66;1021786;28;20545;-68
2022/01/04 00:28:41;;;;;;;3.20;1.08;;;;;;;7.26;100.00;94961.13;1022310;29;20046;-68
2022/01/04 00:29:11;;;;;;;2.92;0.90;;;;;;;7.26;100.00;94960.34;1022207;29;20206;-68
2022/01/04 00:29:42;;;;;;;6.30;1.08;;;;;;;7.21;100.00;94957.72;1022057;28;20162;-69
2022/01/04 00:30:12;;;;;;;1.67;1.00;;;;;;;7.19;100.00;94955.38;1021438;29;20023;-67
2022/01/04 00:30:42;;;;;;;2.25;1.30;;;;;;;7.09;100.00;94945.72;1018055;29;20022;-64
2022/01/04 00:31:13;;;;;;;1.40;1.00;;;;;;;7.14;100.00;94960.59;1012210;29;20031;-68
2022/01/04 00:31:43;;;;;;;1.67;0.95;;;;;;;7.18;100.00;94955.66;1014576;29;20024;-68
2022/01/04 00:32:14;;;;;;;1.70;1.00;;;;;;;7.14;100.00;94946.75;1014380;29;20032;-68
2022/01/04 00:32:44;;;;;;;3.28;1.58;;;;;;;7.14;100.00;94946.75;1014404;29;20024;-67
2022/01/04 00:33:16;;;;;;;3.60;1.33;;;;;;;7.06;100.00;94938.41;1006650;29;20403;-68
2022/01/04 00:33:47;;;;;;;3.00;1.30;;;;;;;7.13;100.00;94958.25;1006724;29;20029;-68
2022/01/04 00:34:18;;;;;;;2.45;1.20;;;;;;;7.14;100.00;94957.97;1007608;29;20277;-70
2022/01/04 00:34:49;;;;;;;5.95;1.17;;;;;;;7.15;100.00;94962.16;1011028;29;20037;-67
2022/01/04 00:35:20;;;;;;;1.67;1.05;;;;;;;7.17;100.00;94948.84;1015150;29;20032;-69
2022/01/04 00:35:50;;;;;;;2.53;1.17;;;;;;;7.06;100.00;94935.81;1018413;29;20263;-66
2022/01/04 00:36:21;;;;;;;3.88;1.13;;;;;;;7.08;100.00;94954.59;1021579;29;20389;-68
2022/01/04 00:36:51;;;;;;;3.75;1.10;;;;;;;7.07;100.00;94942.56;1020940;29;20118;-67
2022/01/04 00:37:22;;;;;;;3.10;0.90;;;;;;;7.13;100.00;94945.22;1018275;29;20043;-68
2022/01/04 00:37:52;;;;;;;3.50;1.10;;;;;;;7.16;100.00;94942.84;1018300;29;20023;-67
2022/01/04 00:38:22;;;;;;;2.35;1.27;;;;;;;7.16;100.00;94942.84;1017949;29;20027;-67
2022/01/04 00:38:53;;;;;;;2.13;1.13;;;;;;;7.17;100.00;94947.03;1014427;29;20020;-67
2022/01/04 00:39:23;;;;;;;3.42;0.60;;;;;;;7.12;100.00;94936.59;1018590;29;20026;-68
2022/01/04 00:39:54;;;;;;;3.88;1.20;;;;;;;7.17;100.00;94936.59;1014618;29;20440;-67
2022/01/04 00:40:24;;;;;;;2.25;0.98;;;;;;;7.23;100.00;94940.78;1013591;29;20390;-67
2022/01/04 00:40:55;;;;;;;2.72;1.00;;;;;;;7.18;100.00;94943.41;1016029;29;20019;-66
2022/01/04 00:41:25;;;;;;;1.27;0.90;;;;;;;7.16;100.00;94937.63;1013029;29;20047;-65
2022/01/04 00:41:56;;;;;;;2.58;0.90;;;;;;;7.21;100.00;94942.06;1014244;29;20403;-68
2022/01/04 00:42:26;;;;;;;3.08;1.02;;;;;;;7.22;100.00;94941.81;1006892;29;20044;-67
2022/01/04 00:43:00;;;;;;;2.15;1.08;;;;;;;7.19;100.00;94944.94;1002510;29;20500;-68
2022/01/04 00:43:30;;;;;;;3.83;1.10;;;;;;;7.20;100.00;94937.91;1010415;29;20535;-68
2022/01/04 00:44:01;;;;;;;3.03;0.90;;;;;;;7.18;100.00;94924.34;1010060;29;20281;-68
2022/01/04 00:44:31;;;;;;;3.90;0.95;;;;;;;7.17;100.00;94922.75;1011134;29;20085;-67
2022/01/04 00:45:02;;;;;;;3.85;0.95;;;;;;;7.16;100.00;94924.59;1011477;29;20033;-69
2022/01/04 00:45:35;;;;;;;2.25;1.00;;;;;;;7.28;100.00;94940.78;1018351;29;20081;-66
2022/01/04 00:46:07;;;;;;;1.92;0.90;;;;;;;7.25;100.00;94935.31;1010538;29;20119;-67
2022/01/04 00:46:38;;;;;;;3.47;1.25;;;;;;;7.33;100.00;94932.94;1022090;28;20270;-70
2022/01/04 00:47:09;;;;;;;2.90;0.80;;;;;;;7.35;100.00;94935.31;1014230;29;20272;-69
2022/01/04 00:47:46;;;;;;;4.68;1.10;;;;;;;7.33;100.00;94927.72;1014676;29;20028;-68
2022/01/04 00:49:36;;;;;;;3.05;1.00;;;;;;;7.32;100.00;94936.59;1018073;29;20529;-67
2022/01/04 00:50:07;;;;;;;1.50;0.90;;;;;;;7.31;100.00;94926.44;1018539;28;20278;-69
2022/01/04 00:50:38;;;;;;;2.25;0.98;;;;;;;7.30;100.00;94924.84;1018477;29;20023;-69
2022/01/04 00:51:09;;;;;;;1.73;1.00;;;;;;;7.26;100.00;94931.66;1018199;29;20517;-68
2022/01/04 00:52:00;;;;;;;3.92;1.02;;;;;;;7.27;100.00;94928.75;1017892;29;20284;-68
2022/01/04 00:52:31;;;;;;;4.78;1.10;;;;;;;7.36;100.00;94930.88;1018421;29;20028;-68
2022/01/04 00:53:02;;;;;;;4.20;1.20;;;;;;;7.38;100.00;94928.75;1014320;29;20260;-69
2022/01/04 00:53:33;;;;;;;3.08;0.90;;;;;;;7.31;100.00;94926.44;1010451;29;20047;-68
2022/01/04 00:54:04;;;;;;;2.63;1.10;;;;;;;7.25;100.00;94919.66;1005679;29;20281;-69
2022/01/04 00:54:35;;;;;;;10.95;1.05;;;;;;;7.26;100.00;94919.38;1010924;29;20455;-69
2022/01/04 00:55:06;;;;;;;2.25;1.52;;;;;;;7.21;100.00;94916.78;1006447;29;20117;-68
2022/01/04 00:55:36;;;;;;;1.77;1.05;;;;;;;7.21;100.00;94919.41;1010315;29;20332;-68
2022/01/04 00:56:07;;;;;;;3.42;1.13;;;;;;;7.35;100.00;94924.09;1014722;29;20028;-69
2022/01/04 00:56:37;;;;;;;2.58;1.17;;;;;;;7.30;100.00;94917.81;1015850;29;20020;-68
2022/01/04 00:57:07;;;;;;;2.47;0.82;;;;;;;7.39;100.00;94923.28;1014215;29;20454;-68
2022/01/04 00:57:38;;;;;;;1.50;0.98;;;;;;;7.33;100.00;94922.50;1014350;29;20031;-68
2022/01/04 00:58:08;;;;;;;1.67;0.95;;;;;;;7.36;100.00;94912.59;1014403;29;20020;-69
2022/01/04 00:58:39;;;;;;;2.92;0.93;;;;;;;7.46;100.00;94921.19;1014600;29;20129;-68
2022/01/04 00:59:09;;;;;;;5.72;1.50;;;;;;;7.44;100.00;94917.28;1010420;29;20031;-67
2022/01/04 00:59:43;;;;;;;3.30;0.85;;;;;;;7.43;100.00;94921.72;1009964;29;20032;-68
2022/01/04 01:00:14;;;;;;;3.97;1.10;;;;;;;7.39;100.00;94922.50;1009791;29;20033;-68
2022/01/04 01:00:44;;;;;;;5.60;1.15;;;;;;;7.37;100.00;94919.38;1015003;29;21143;-69
2022/01/04 01:01:15;;;;;;;2.63;0.90;;;;;;;7.44;100.00;94917.28;1018360;29;20267;-67
2022/01/04 01:01:45;;;;;;;4.13;0.93;;;;;;;7.42;100.00;94916.78;1022100;28;20035;-64
2022/01/04 01:02:16;;;;;;;2.45;0.80;;;;;;;7.41;100.00;94912.56;1018053;29;20136;-68
2022/01/04 01:02:46;;;;;;;3.22;1.20;;;;;;;7.43;100.00;94916.50;1014573;29;20052;-67
2022/01/04 01:03:17;;;;;;;1.73;0.85;;;;;;;7.42;100.00;94919.38;1010596;29;20031;-67
2022/01/04 01:03:47;;;;;;;2.53;0.80;;;;;;;7.42;100.00;94909.72;1014118;29;20076;-67
2022/01/04 01:04:18;;;;;;;1.90;0.80;;;;;;;7.41;100.00;94917.78;1014447;29;20076;-68
2022/01/04 01:04:49;;;;;;;1.50;0.80;;;;;;;7.43;100.00;94913.88;1014589;29;20032;-68
2022/01/04 01:05:22;;;;;;;2.28;0.93;;;;;;;7.35;100.00;94901.38;1014337;29;20031;-68
2022/01/04 01:05:52;;;;;;;2.60;1.00;;;;;;;7.47;100.00;94916.75;1011905;29;20909;-68
2022/01/04 01:06:23;;;;;;;1.85;0.90;;;;;;;7.48;100.00;94908.69;1018409;29;20271;-69
2022/01/04 01:06:53;;;;;;;2.25;0.90;;;;;;;7.47;100.00;94911.53;1018702;28;20031;-68
2022/01/04 01:07:23;;;;;;;2.33;0.75;;;;;;;7.38;100.00;94905.28;1019549;29;20024;-67
2022/01/04 01:07:54;;;;;;;2.70;1.23;;;;;;;7.33;100.00;94896.41;1026160;28;20023;-67
2022/01/04 01:08:24;;;;;;;1.77;0.90;;;;;;;7.46;100.00;94902.94;1026499;28;20062;-68
2022/01/04 01:08:55;;;;;;;2.00;1.02;;;;;;;7.40;100.00;94908.41;1023048;28;20031;-68
2022/01/04 01:09:30;;;;;;;3.10;1.00;;;;;;;7.39;100.00;94904.25;1021954;28;20516;-68
2022/01/04 01:10:44;;;;;;;0.90;0.68;;;;;;;7.44;100.00;94912.06;1022217;29;20318;-68
2022/01/04 01:11:15;;;;;;;2.50;0.82;;;;;;;7.42;100.00;94909.72;1022265;29;20086;-68
2022/01/04 01:11:45;;;;;;;1.90;0.80;;;;;;;7.53;100.00;94915.72;1022145;29;20793;-69
2022/01/04 01:12:15;;;;;;;1.50;0.70;;;;;;;7.49;100.00;94910.22;1016005;29;20390;-67
2022/01/04 01:12:46;;;;;;;1.35;0.90;;;;;;;7.55;100.00;94908.41;1012355;29;20804;-68
2022/01/04 01:13:16;;;;;;;1.77;0.90;;;;;;;7.44;100.00;94894.56;1010498;29;20654;-68
2022/01/04 01:13:47;;;;;;;2.33;1.10;;;;;;;7.50;100.00;94895.34;1011721;29;20407;-69
2022/01/04 01:14:17;;;;;;;1.95;0.98;;;;;;;7.55;100.00;94903.19;1021683;28;20445;-68
2022/01/04 01:14:48;;;;;;;2.22;0.82;;;;;;;7.53;100.00;94900.81;1023100;28;20035;-69
2022/01/04 01:15:18;;;;;;;3.72;1.02;;;;;;;7.51;100.00;94897.72;1014652;29;20020;-68
2022/01/04 01:15:49;;;;;;;2.08;1.00;;;;;;;7.53;100.00;94894.81;1006520;29;20031;-68
2022/01/04 01:16:19;;;;;;;4.07;0.90;;;;;;;7.56;100.00;94892.47;1014255;29;20031;-68
2022/01/04 01:16:50;;;;;;;3.08;0.93;;;;;;;7.61;100.00;94891.66;1012365;29;20061;-67
2022/01/04 01:17:20;;;;;;;3.25;0.90;;;;;;;7.57;100.00;94890.63;1014248;29;20035;-68
2022/01/04 01:17:51;;;;;;;2.65;0.98;;;;;;;7.56;100.00;94892.47;1018419;29;20020;-68
2022/01/04 01:18:21;;;;;;;4.05;1.00;;;;;;;7.56;100.00;94900.31;1018062;29;20078;-68
2022/01/04 01:18:52;;;;;;;2.22;0.80;;;;;;;7.55;100.00;94898.75;1018665;29;20473;-68
2022/01/04 01:19:22;;;;;;;3.03;0.90;;;;;;;7.53;100.00;94898.22;1022092;28;20336;-68
2022/01/04 01:19:52;;;;;;;1.90;0.80;;;;;;;7.53;100.00;94889.59;1018037;29;20020;-68
2022/01/04 01:20:23;;;;;;;1.40;0.77;;;;;;;7.58;100.00;94892.22;1024396;28;20022;-68
2022/01/04 01:20:54;;;;;;;2.80;1.10;;;;;;;7.57;100.00;94891.41;1018490;29;20481;-68
2022/01/04 01:21:24;;;;;;;3.42;0.80;;;;;;;7.54;100.00;94881.53;1014291;29;20028;-67
2022/01/04 01:21:54;;;;;;;1.23;0.85;;;;;;;7.65;100.00;94892.72;1018406;29;20051;-68
2022/01/04 01:22:25;;;;;;;2.30;0.98;;;;;;;7.62;100.00;94893.25;1021791;28;20083;-68
2022/01/04 01:22:55;;;;;;;3.95;1.13;;;;;;;7.62;100.00;94885.41;1013951;29;20449;-69
2022/01/04 01:23:26;;;;;;;1.20;0.73;;;;;;;7.64;100.00;94888.53;1010556;29;20106;-68
2022/01/04 01:23:56;;;;;;;2.65;0.90;;;;;;;7.60;100.00;94887.50;1014359;29;20439;-67
2022/01/04 01:24:27;;;;;;;2.88;1.25;;;;;;;7.59;100.00;94888.56;1016830;29;20414;-67
2022/01/04 01:24:57;;;;;;;1.23;0.73;;;;;;;7.56;100.00;94883.84;1018045;29;20024;-68
2022/01/04 01:25:27;;;;;;;6.72;1.58;;;;;;;7.57;100.00;94890.63;1014355;29;20039;-68
2022/01/04 01:25:58;;;;;;;2.03;0.80;;;;;;;7.52;100.00;94878.38;1003707;29;20018;-64
2022/01/04 01:26:28;;;;;;;2.17;1.00;;;;;;;7.54;100.00;94878.09;1009230;29;20029;-65
2022/01/04 01:26:59;;;;;;;1.42;0.70;;;;;;;7.59;100.00;94885.16;1011158;29;20092;-67
2022/01/04 01:27:29;;;;;;;4.05;1.05;;;;;;;7.57;100.00;94878.34;1012216;29;20024;-70
2022/01/04 01:28:00;;;;;;;1.50;0.80;;;;;;;7.59;100.00;94888.56;1014252;29;20200;-68
2022/01/04 01:28:31;;;;;;;5.82;1.33;;;;;;;7.55;100.00;94877.09;1018161;29;20028;-68
2022/01/04 01:29:02;;;;;;;3.25;0.93;;;;;;;7.60;100.00;94884.88;1013948;29;20199;-69
2022/01/04 01:29:32;;;;;;;1.33;0.65;;;;;;;7.60;100.00;94881.50;1014083;29;20276;-66
2022/01/04 01:30:03;;;;;;;2.33;0.77;;;;;;;7.61;100.00;94881.22;1010119;29;20028;-67
2022/01/04 01:30:36;;;;;;;2.20;0.95;;;;;;;7.66;100.00;94886.44;1017943;29;20032;-67
2022/01/04 01:31:07;;;;;;;3.42;0.80;;;;;;;7.64;100.00;94867.66;1013907;29;20056;-68
2022/01/04 01:31:38;;;;;;;2.33;0.90;;;;;;;7.66;100.00;94878.63;1011145;29;20319;-68
2022/01/04 01:32:08;;;;;;;2.05;0.82;;;;;;;7.67;100.00;94874.94;1010301;29;20025;-67
2022/01/04 01:32:39;;;;;;;1.55;0.73;;;;;;;7.73;100.00;94878.34;1020320;29;20008;-67
2022/01/04 01:33:10;;;;;;;2.10;0.80;;;;;;;7.78;100.00;94873.13;1020311;28;20026;-67
2022/01/04 01:33:40;;;;;;;2.83;0.95;;;;;;;7.73;100.00;94868.66;1018155;29;20032;-68
2022/01/04 01:34:11;;;;;;;2.85;1.40;;;;;;;7.79;100.00;94877.28;1019246;29;20618;-68
2022/01/04 01:34:42;;;;;;;2.55;1.02;;;;;;;7.80;100.00;94874.38;1014080;29;20036;-68
2022/01/04 01:35:12;;;;;;;3.20;0.98;;;;;;;7.86;100.00;94869.94;1002573;29;20104;-67
2022/01/04 01:35:43;;;;;;;2.10;0.80;;;;;;;7.87;100.00;94868.88;999199;29;20267;-68
2022/01/04 01:36:14;;;;;;;2.08;0.80;;;;;;;7.84;100.00;94864.19;1010126;29;20027;-70
2022/01/04 01:36:44;;;;;;;2.05;0.70;;;;;;;7.86;100.00;94869.16;1010170;29;20427;-67
2022/01/04 01:37:14;;;;;;;3.17;1.00;;;;;;;7.93;100.00;94862.59;1010477;29;20021;-68
2022/01/04 01:37:45;;;;;;;2.13;0.90;;;;;;;7.98;100.00;94859.19;1014178;29;20032;-68
2022/01/04 01:38:17;;;;;;;0.80;0.60;;;;;;;7.86;100.00;94848.28;1014673;29;20016;-66
2022/01/04 01:38:47;;;;;;;3.70;0.95;;;;;;;7.88;100.00;94859.22;1018233;29;20067;-68
2022/01/04 01:39:17;;;;;;;4.32;0.95;;;;;;;7.90;100.00;94857.13;1017934;29;20781;-68
2022/01/04 01:39:48;;;;;;;2.22;1.10;;;;;;;7.94;100.00;94839.88;1022071;29;20383;-68
2022/01/04 01:40:18;;;;;;;2.45;0.80;;;;;;;7.91;100.00;94859.47;1012588;29;20039;-68
2022/01/04 01:40:49;;;;;;;1.70;0.90;;;;;;;7.86;100.00;94850.88;1014293;29;20402;-67
2022/01/04 01:41:20;;;;;;;2.95;0.70;;;;;;;7.89;100.00;94853.75;1016462;29;20593;-68
2022/01/04 01:41:50;;;;;;;3.03;1.02;;;;;;;7.97;100.00;94857.63;1021934;29;20024;-68
2022/01/04 01:42:21;;;;;;;1.48;0.85;;;;;;;7.96;100.00;94850.84;1022062;29;20091;-68
2022/01/04 01:42:51;;;;;;;2.75;0.88;;;;;;;7.95;100.00;94855.28;1021895;29;20455;-66
2022/01/04 01:43:24;;;;;;;1.92;0.90;;;;;;;7.96;100.00;94850.84;1017751;29;20020;-68
2022/01/04 01:43:54;;;;;;;3.50;0.90;;;;;;;7.90;100.00;94847.47;1018118;29;20509;-68
2022/01/04 01:44:25;;;;;;;1.50;0.75;;;;;;;7.91;100.00;94843.00;1018122;29;20276;-68
2022/01/04 01:44:55;;;;;;;2.55;0.77;;;;;;;7.92;100.00;94840.16;1018662;29;20363;-66
2022/01/04 01:45:26;;;;;;;2.00;1.15;;;;;;;7.93;100.00;94838.31;1018227;29;20076;-69
2022/01/04 01:45:57;;;;;;;2.35;0.90;;;;;;;7.91;100.00;94835.94;1011576;29;20032;-70
2022/01/04 01:46:27;;;;;;;2.38;0.80;;;;;;;7.97;100.00;94832.28;1014228;29;20581;-68
2022/01/04 01:46:58;;;;;;;2.95;1.02;;;;;;;7.99;100.00;94832.03;1017861;29;20055;-68
2022/01/04 01:47:28;;;;;;;2.05;0.85;;;;;;;8.08;100.00;94832.22;1018128;29;20028;-68
2022/01/04 01:47:59;;;;;;;0.93;0.80;;;;;;;7.96;100.00;94820.28;1018065;29;20845;-68
2022/01/04 01:48:29;;;;;;;1.48;0.75;;;;;;;7.99;100.00;94829.41;1014346;29;20024;-68
2022/01/04 01:49:00;;;;;;;1.92;0.95;;;;;;;7.94;100.00;94826.81;1021951;29;20358;-68
2022/01/04 01:49:30;;;;;;;2.05;0.75;;;;;;;7.87;100.00;94821.09;1014256;29;20028;-69
2022/01/04 01:50:01;;;;;;;2.33;0.75;;;;;;;7.95;100.00;94817.94;1012396;29;20136;-64
2022/01/04 01:50:31;;;;;;;2.90;1.00;;;;;;;7.92;100.00;94823.69;1010115;29;20035;-68
2022/01/04 01:51:02;;;;;;;3.47;1.05;;;;;;;7.95;100.00;94823.16;1014194;29;20032;-69
2022/01/04 01:51:32;;;;;;;3.42;0.90;;;;;;;7.91;100.00;94809.84;1013912;29;20091;-69
2022/01/04 01:52:03;;;;;;;2.63;0.95;;;;;;;7.94;100.00;94821.59;1006287;29;20396;-68
2022/01/04 01:52:33;;;;;;;3.42;0.80;;;;;;;7.86;100.00;94804.66;1002712;29;20025;-68
2022/01/04 01:53:04;;;;;;;3.05;1.08;;;;;;;7.89;100.00;94816.41;1006327;29;20475;-68
2022/01/04 01:53:34;;;;;;;1.65;0.80;;;;;;;7.85;100.00;94810.16;1006668;29;20029;-69
2022/01/04 01:54:05;;;;;;;1.88;0.60;;;;;;;7.86;100.00;94809.09;1010277;29;20253;-68
2022/01/04 01:54:35;;;;;;;2.53;1.15;;;;;;;7.87;100.00;94815.88;1015208;29;20028;-67
2022/01/04 01:55:06;;;;;;;2.55;0.80;;;;;;;7.66;100.00;94774.19;1013796;29;20017;-68
2022/01/04 01:55:37;;;;;;;2.25;1.20;;;;;;;7.90;100.00;94805.66;1013049;29;20020;-69
2022/01/04 01:56:07;;;;;;;1.05;0.70;;;;;;;7.82;100.00;94805.47;1010939;29;20257;-68
2022/01/04 01:56:37;;;;;;;2.05;0.93;;;;;;;7.89;100.00;94813.78;1010913;29;20545;-67
2022/01/04 01:57:08;;;;;;;2.35;0.80;;;;;;;7.86;100.00;94803.88;1007008;29;20487;-67
2022/01/04 01:57:38;;;;;;;3.65;1.00;;;;;;;7.91;100.00;94791.56;1011060;29;20384;-68
2022/01/04 01:58:09;;;;;;;0.80;0.70;;;;;;;8.16;100.00;94818.63;1014610;29;20052;-67
2022/01/04 01:58:39;;;;;;;2.35;1.00;;;;;;;8.13;100.00;94819.16;1018738;29;20016;-67
2022/01/04 01:59:10;;;;;;;1.58;0.98;;;;;;;8.09;100.00;94812.91;1014937;29;20466;-68
2022/01/04 01:59:40;;;;;;;3.05;0.90;;;;;;;8.08;100.00;94811.31;1018978;29;20026;-68
2022/01/04 02:00:12;;;;;;;2.28;1.00;;;;;;;7.98;100.00;94810.34;1018037;29;20393;-68
2022/01/04 02:00:42;;;;;;;4.00;0.90;;;;;;;7.99;100.00;94809.28;1007446;29;20018;-68
2022/01/04 02:01:13;;;;;;;2.03;0.80;;;;;;;7.98;100.00;94812.97;1007288;29;20648;-68
2022/01/04 02:01:44;;;;;;;1.30;0.75;;;;;;;7.97;100.00;94805.38;1010941;29;20124;-66
2022/01/04 02:02:14;;;;;;;3.72;1.00;;;;;;;7.97;100.00;94808.78;1011134;29;20798;-68
2022/01/04 02:02:45;;;;;;;2.42;0.95;;;;;;;7.95;100.00;94807.50;1015207;29;20027;-67
2022/01/04 02:03:15;;;;;;;2.70;0.80;;;;;;;7.92;100.00;94806.19;1018820;29;20020;-68
2022/01/04 02:03:46;;;;;;;1.95;1.05;;;;;;;7.93;100.00;94806.97;1014873;29;20016;-68
2022/01/04 02:04:16;;;;;;;3.60;0.95;;;;;;;7.99;100.00;94805.91;1015118;29;20058;-68
2022/01/04 02:04:47;;;;;;;3.70;0.93;;;;;;;7.99;100.00;94800.69;1015027;29;20028;-67
2022/01/04 02:05:17;;;;;;;2.97;0.95;;;;;;;8.04;100.00;94800.63;1015065;29;20021;-63
2022/01/04 02:05:48;;;;;;;2.72;0.93;;;;;;;8.02;100.00;94805.38;1018882;29;20087;-67
2022/01/04 02:06:19;;;;;;;5.38;1.50;;;;;;;8.02;100.00;94813.97;1011083;29;20406;-68
2022/01/04 02:06:50;;;;;;;1.00;0.73;;;;;;;7.99;100.00;94804.06;1014696;29;20016;-68
2022/01/04 02:07:21;;;;;;;2.75;0.85;;;;;;;8.00;100.00;94802.22;1011146;29;20383;-67
2022/01/04 02:07:51;;;;;;;2.45;0.70;;;;;;;7.92;100.00;94787.13;1011520;29;20688;-67
2022/01/04 02:08:22;;;;;;;3.42;1.08;;;;;;;7.97;100.00;94797.53;1015153;29;20336;-68
2022/01/04 02:08:52;;;;;;;2.17;0.68;;;;;;;8.01;100.00;94795.94;1014974;29;20024;-68
2022/01/04 02:09:24;;;;;;;1.80;0.75;;;;;;;8.00;100.00;94794.41;1015174;29;20012;-67
2022/01/04 02:10:05;;;;;;;1.70;1.13;;;;;;;7.95;100.00;94787.38;1014969;29;20491;-69
2022/01/04 02:10:35;;;;;;;1.25;0.70;;;;;;;7.95;100.00;94797.81;1008225;29;20280;-67
2022/01/04 02:11:05;;;;;;;2.25;0.90;;;;;;;7.94;100.00;94795.47;1013282;29;20399;-67
2022/01/04 02:11:36;;;;;;;1.38;0.80;;;;;;;7.91;100.00;94785.56;1016441;29;20019;-68
2022/01/04 02:12:07;;;;;;;2.17;0.90;;;;;;;8.03;100.00;94783.41;1016129;29;20020;-68
2022/01/04 02:12:44;;;;;;;2.15;0.70;;;;;;;8.01;100.00;94775.06;1012147;29;20016;-66
2022/01/04 02:13:15;;;;;;;1.38;0.80;;;;;;;8.02;100.00;94787.09;1020276;29;20278;-68
2022/01/04 02:13:45;;;;;;;2.53;1.20;;;;;;;8.02;100.00;94782.63;1021059;29;20266;-67
2022/01/04 02:14:16;;;;;;;1.55;0.63;;;;;;;8.00;100.00;94778.72;1024218;29;20024;-68
2022/01/04 02:14:49;;;;;;;3.42;0.95;;;;;;;7.95;100.00;94774.31;1023321;29;20027;-68
2022/01/04 02:15:20;;;;;;;3.33;0.90;;;;;;;7.95;100.00;94766.47;1024348;29;20282;-68
2022/01/04 02:15:52;;;;;;;1.42;0.63;;;;;;;8.00;100.00;94778.72;1020090;29;20769;-69
2022/01/04 02:16:24;;;;;;;3.53;1.10;;;;;;;7.98;100.00;94771.16;1020594;29;20697;-68
2022/01/04 02:16:54;;;;;;;2.47;1.02;;;;;;;7.98;100.00;94768.56;1016072;29;20264;-67
2022/01/04 02:17:25;;;;;;;3.25;1.00;;;;;;;7.99;100.00;94769.34;1016248;29;20332;-67
2022/01/04 02:17:56;;;;;;;2.58;1.02;;;;;;;8.03;100.00;94772.97;1016536;29;20024;-67
2022/01/04 02:18:26;;;;;;;1.65;0.80;;;;;;;7.99;100.00;94759.66;1008535;29;20029;-68
2022/01/04 02:19:00;;;;;;;1.88;0.68;;;;;;;8.04;100.00;94766.69;1007665;29;20029;-67
2022/01/04 02:19:34;;;;;;;1.95;0.90;;;;;;;8.03;100.00;94768.50;1009292;29;20085;-67
2022/01/04 02:20:06;;;;;;;1.55;0.75;;;;;;;7.99;100.00;94761.50;1011940;29;21181;-65
2022/01/04 02:20:36;;;;;;;3.80;0.90;;;;;;;7.84;100.00;94738.84;1011037;29;20295;-68
2022/01/04 02:21:06;;;;;;;2.38;0.70;;;;;;;8.03;100.00;94759.91;1016072;29;20263;-68
2022/01/04 02:21:37;;;;;;;1.08;0.77;;;;;;;8.01;100.00;94765.41;1013323;29;20037;-69
2022/01/04 02:22:07;;;;;;;2.03;0.80;;;;;;;7.96;100.00;94757.59;1018352;29;20501;-68
2022/01/04 02:22:38;;;;;;;3.38;0.70;;;;;;;7.95;100.00;94750.03;1019921;29;20055;-67
2022/01/04 02:23:08;;;;;;;1.80;0.90;;;;;;;8.02;100.00;94756.50;1016526;29;20466;-68
2022/01/04 02:23:39;;;;;;;2.40;0.90;;;;;;;8.03;100.00;94758.06;1016427;29;20020;-68
2022/01/04 02:24:09;;;;;;;1.73;0.80;;;;;;;8.05;100.00;94755.19;1016395;29;20031;-68
2022/01/04 02:24:39;;;;;;;2.35;0.90;;;;;;;7.96;100.00;94739.31;1016445;29;20040;-69
2022/01/04 02:25:10;;;;;;;1.27;0.70;;;;;;;7.99;100.00;94745.81;1020068;29;20046;-68
2022/01/04 02:25:40;;;;;;;2.20;1.15;;;;;;;7.93;100.00;94736.44;1020304;29;20023;-68
2022/01/04 02:26:11;;;;;;;4.15;1.00;;;;;;;7.92;100.00;94743.50;1016006;29;20024;-68
2022/01/04 02:26:41;;;;;;;1.92;1.08;;;;;;;7.86;100.00;94730.75;1009270;29;20525;-68
2022/01/04 02:27:12;;;;;;;2.08;0.70;;;;;;;7.94;100.00;94745.84;1012177;29;20662;-69
2022/01/04 02:27:42;;;;;;;1.98;0.88;;;;;;;7.93;100.00;94741.66;1016381;29;20536;-68
2022/01/04 02:28:18;;;;;;;1.50;0.73;;;;;;;7.83;100.00;94728.66;1019023;29;20035;-69
2022/01/04 02:28:48;;;;;;;1.13;0.52;;;;;;;7.88;100.00;94739.06;1020216;29;20039;-68
2022/01/04 02:29:19;;;;;;;1.35;0.80;;;;;;;7.84;100.00;94744.06;1012460;29;20315;-68